Time;durP1;ratioP1;P1;durP2;ratioP2;P2;SDS_P1;SDS_P2;PMS_P1;PMS_P2;Temp;Humidity;BMP_temperature;BMP_pressure;BME280_temperature;BME280_humidity;BME280_pressure;Samples;Min_cycle;Max_cycle;Signal;HPM_P1;HPM_P2
2022/05/01 00:02:16;;;;;;;17.00;13.27;;;4.20;67.40;;;;;;5020121;28;20044;-91
2022/05/01 00:04:42;;;;;;;17.60;13.40;;;4.10;56.00;;;;;;5022456;28;20048;-91
2022/05/01 00:07:12;;;;;;;19.65;15.85;;;4.10;25.50;;;;;;5019073;28;20645;-92
2022/05/01 00:09:42;;;;;;;20.23;14.23;;;4.10;70.50;;;;;;5022511;28;20048;-91
2022/05/01 00:12:08;;;;;;;23.10;16.25;;;4.10;99.90;;;;;;5039159;28;20037;-90
2022/05/01 00:14:37;;;;;;;23.10;16.27;;;4.00;99.90;;;;;;5019981;28;20041;-91
2022/05/01 00:17:03;;;;;;;23.50;17.52;;;4.00;99.90;;;;;;5015930;28;20235;-90
2022/05/01 00:19:29;;;;;;;20.52;16.55;;;4.00;99.90;;;;;;5018504;28;20414;-90
2022/05/01 00:21:58;;;;;;;24.17;17.27;;;4.00;99.90;;;;;;5018509;28;20037;-91
2022/05/01 00:24:25;;;;;;;27.15;17.45;;;4.00;99.90;;;;;;5032261;28;20048;-91
2022/05/01 00:26:51;;;;;;;24.15;17.33;;;4.00;99.90;;;;;;5014060;28;20045;-91
2022/05/01 00:29:16;;;;;;;22.55;16.55;;;4.00;99.90;;;;;;5025973;28;20496;-91
2022/05/01 00:31:42;;;;;;;21.90;14.80;;;3.90;99.90;;;;;;5025015;28;20037;-91
2022/05/01 00:36:52;;;;;;;16.17;12.77;;;3.50;99.90;;;;;;5030811;28;20084;-90
2022/05/01 00:39:18;;;;;;;20.13;14.25;;;3.40;99.90;;;;;;5014094;28;20065;-91
2022/05/01 00:41:45;;;;;;;16.83;12.27;;;3.40;99.90;;;;;;5016224;28;20044;-91
2022/05/01 00:44:18;;;;;;;22.95;15.55;;;3.40;99.90;;;;;;5020333;28;20417;-90
2022/05/01 00:46:50;;;;;;;24.40;16.75;;;3.50;99.90;;;;;;5016969;28;20036;-90
2022/05/01 00:49:24;;;;;;;28.15;18.67;;;3.40;99.90;;;;;;5012890;28;20465;-89
2022/05/01 00:51:52;;;;;;;23.02;15.70;;;3.40;99.90;;;;;;5032184;28;20102;-92
2022/05/01 00:54:32;;;;;;;24.90;16.95;;;3.30;99.90;;;;;;5017792;28;20062;-90
2022/05/01 00:57:02;;;;;;;35.50;20.90;;;3.30;99.90;;;;;;5016794;28;20037;-90
2022/05/01 00:59:28;;;;;;;21.92;15.63;;;3.30;99.90;;;;;;5035944;28;20044;-90
2022/05/01 01:01:55;;;;;;;25.73;17.33;;;3.20;99.90;;;;;;5020321;28;20065;-92
2022/05/01 01:04:21;;;;;;;29.10;19.80;;;3.20;99.90;;;;;;5020073;28;20079;-90
2022/05/01 01:06:48;;;;;;;312.15;24.83;;;3.20;99.90;;;;;;5038137;28;20073;-90
2022/05/01 01:09:16;;;;;;;30.15;15.30;;;3.00;99.90;;;;;;5033188;28;20136;-91
2022/05/01 01:11:46;;;;;;;19.30;14.75;;;3.00;99.90;;;;;;5022306;28;20064;-91
2022/05/01 01:14:12;;;;;;;29.88;19.83;;;3.00;99.90;;;;;;5018276;28;20234;-91
2022/05/01 01:16:39;;;;;;;24.90;17.55;;;3.00;99.90;;;;;;5025812;28;20395;-91
2022/05/01 01:19:08;;;;;;;30.13;19.83;;;3.00;99.90;;;;;;5021123;28;20033;-90
2022/05/01 01:21:35;;;;;;;27.52;19.15;;;3.00;99.90;;;;;;5021087;28;20542;-91
2022/05/01 01:24:03;;;;;;;58.72;8.80;;;2.90;99.90;;;;;;5019907;28;20045;-90
2022/05/01 01:26:29;;;;;;;371.80;22.30;;;2.70;99.90;;;;;;5034480;28;20145;-90
2022/05/01 01:28:57;;;;;;;159.38;23.48;;;2.50;99.90;;;;;;5025053;28;20037;-90
2022/05/01 01:31:42;;;;;;;532.47;33.20;;;2.60;99.90;;;;;;5019851;28;20095;-90
2022/05/01 01:34:11;;;;;;;142.27;26.42;;;2.60;99.90;;;;;;5018307;28;20029;-91
2022/05/01 01:36:38;;;;;;;28.40;16.40;;;2.80;1.00;;;;;;5031175;28;20037;-91
2022/05/01 01:39:07;;;;;;;24.98;16.73;;;2.50;99.90;;;;;;5013326;28;20032;-91
2022/05/01 01:41:38;;;;;;;249.52;27.02;;;2.50;99.90;;;;;;5013789;28;20048;-90
2022/05/01 01:44:04;;;;;;;352.45;31.45;;;2.60;1.00;;;;;;5020452;28;20044;-91
2022/05/01 01:46:31;;;;;;;36.30;20.92;;;2.50;1.00;;;;;;5021612;28;20033;-90
2022/05/01 01:48:57;;;;;;;28.52;18.08;;;2.50;1.00;;;;;;5033060;28;20551;-91
2022/05/01 01:51:23;;;;;;;24.98;17.10;;;2.40;99.90;;;;;;5032689;28;20049;-91
2022/05/01 01:53:49;;;;;;;18.10;14.15;;;2.30;99.90;;;;;;5018898;28;20129;-92
2022/05/01 01:56:14;;;;;;;20.00;15.65;;;2.20;99.90;;;;;;5013164;28;20338;-91
2022/05/01 01:58:41;;;;;;;20.60;16.27;;;2.10;99.90;;;;;;5030283;28;20033;-90
2022/05/01 02:01:08;;;;;;;23.75;16.65;;;2.10;99.90;;;;;;5017214;28;20112;-91
2022/05/01 02:03:34;;;;;;;26.05;18.45;;;2.10;99.90;;;;;;5018179;28;20136;-91
2022/05/01 02:06:04;;;;;;;22.27;16.27;;;2.10;99.90;;;;;;5018541;28;20041;-91
2022/05/01 02:08:31;;;;;;;22.17;16.42;;;2.00;99.90;;;;;;5036698;28;20495;-91
2022/05/01 02:10:56;;;;;;;22.15;15.68;;;2.00;99.90;;;;;;5019595;28;20047;-90
2022/05/01 02:13:22;;;;;;;22.08;15.25;;;2.00;99.90;;;;;;5024889;28;20033;-91
2022/05/01 02:15:48;;;;;;;23.98;16.67;;;2.00;99.90;;;;;;5040021;28;20041;-90
2022/05/01 02:18:14;;;;;;;24.52;16.98;;;2.00;99.90;;;;;;5022689;28;20053;-88
2022/05/01 02:23:24;;;;;;;328.50;32.30;;;2.00;99.90;;;;;;5041249;28;20070;-93
2022/05/01 02:25:50;;;;;;;91.82;17.25;;;1.90;99.90;;;;;;5017756;28;20091;-90
2022/05/01 02:28:17;;;;;;;44.17;15.93;;;1.70;99.90;;;;;;5021036;28;20025;-90
2022/05/01 02:30:43;;;;;;;269.38;27.20;;;1.70;99.90;;;;;;5056003;28;20042;-91
2022/05/01 02:33:09;;;;;;;40.72;19.40;;;1.70;99.90;;;;;;5015320;28;20095;-92
2022/05/01 02:35:38;;;;;;;354.67;24.15;;;1.70;99.90;;;;;;5016559;28;20045;-90
2022/05/01 02:38:05;;;;;;;100.20;14.90;;;1.70;99.90;;;;;;5017126;28;20033;-91
2022/05/01 02:40:31;;;;;;;118.90;19.38;;;1.70;99.90;;;;;;5021531;28;20124;-91
2022/05/01 02:43:01;;;;;;;26.52;18.38;;;1.80;1.00;;;;;;5036652;28;20036;-90
2022/05/01 02:45:27;;;;;;;26.13;16.42;;;1.80;99.90;;;;;;5037924;28;20447;-90
2022/05/01 02:47:56;;;;;;;16.42;12.85;;;1.70;99.90;;;;;;5020535;28;20033;-90
2022/05/01 02:50:22;;;;;;;36.88;15.30;;;1.60;99.90;;;;;;5020874;28;20044;-91
2022/05/01 02:52:51;;;;;;;45.25;13.43;;;1.60;99.90;;;;;;5024393;28;20112;-90
2022/05/01 02:55:17;;;;;;;18.58;11.73;;;1.60;99.90;;;;;;5010380;28;20043;-90
2022/05/01 02:57:43;;;;;;;18.40;12.00;;;1.60;99.90;;;;;;5018608;28;20033;-92
2022/05/01 03:00:22;;;;;;;15.38;12.30;;;1.50;99.90;;;;;;5024290;28;20057;-90
2022/05/01 03:02:48;;;;;;;14.88;11.65;;;1.50;99.90;;;;;;5048913;28;20551;-91
2022/05/01 03:05:17;;;;;;;13.20;11.50;;;1.50;99.90;;;;;;5028705;28;20339;-91
2022/05/01 03:07:43;;;;;;;16.67;12.02;;;1.40;99.90;;;;;;5030121;28;20034;-90
2022/05/01 03:10:10;;;;;;;25.67;13.25;;;1.40;99.90;;;;;;5017185;28;20487;-91
2022/05/01 03:12:39;;;;;;;20.77;14.65;;;1.40;99.90;;;;;;5030518;28;20044;-91
2022/05/01 03:15:06;;;;;;;21.42;13.43;;;1.40;99.90;;;;;;5033057;28;20044;-90
2022/05/01 03:23:01;;;;;;;19.52;14.70;;;1.40;99.90;;;;;;5030361;28;20525;-92
2022/05/01 03:25:27;;;;;;;27.05;16.60;;;1.40;99.90;;;;;;5020067;28;20079;-92
2022/05/01 03:27:56;;;;;;;14.60;12.27;;;1.40;99.90;;;;;;5040693;28;20080;-92
2022/05/01 03:30:22;;;;;;;19.63;14.38;;;1.30;99.90;;;;;;5020227;28;20045;-91
2022/05/01 03:32:49;;;;;;;59.08;17.20;;;1.30;99.90;;;;;;5023937;28;20114;-92
2022/05/01 03:35:16;;;;;;;20.25;15.98;;;1.40;99.90;;;;;;5024908;28;20048;-91
2022/05/01 03:37:42;;;;;;;34.30;15.15;;;1.30;99.90;;;;;;5024115;28;20065;-92
2022/05/01 03:40:09;;;;;;;16.45;13.82;;;1.30;99.90;;;;;;5031939;28;20033;-91
2022/05/01 03:42:35;;;;;;;15.93;13.02;;;1.30;99.90;;;;;;5016364;28;20049;-91
2022/05/01 03:45:00;;;;;;;14.88;12.35;;;1.20;99.90;;;;;;5029957;28;20970;-91
2022/05/01 03:47:26;;;;;;;16.73;13.90;;;1.30;99.90;;;;;;5014605;28;20041;-91
2022/05/01 03:49:52;;;;;;;18.13;13.32;;;1.20;99.90;;;;;;5040317;28;20213;-91
2022/05/01 03:52:17;;;;;;;20.27;14.45;;;1.20;99.90;;;;;;5033084;28;20159;-91
2022/05/01 03:54:43;;;;;;;22.35;17.50;;;1.20;99.90;;;;;;5033055;28;20048;-91
2022/05/01 03:57:10;;;;;;;22.52;16.13;;;1.20;99.90;;;;;;5012482;28;20490;-90
2022/05/01 03:59:36;;;;;;;25.77;18.58;;;1.20;99.90;;;;;;5014457;28;20045;-91
2022/05/01 04:02:02;;;;;;;28.23;19.20;;;1.30;99.90;;;;;;5016260;28;20326;-91
2022/05/01 04:04:28;;;;;;;29.58;21.30;;;1.20;99.90;;;;;;5015540;28;20120;-91
2022/05/01 04:06:53;;;;;;;27.42;19.73;;;1.30;99.90;;;;;;5017764;28;20103;-90
2022/05/01 04:09:21;;;;;;;22.70;16.27;;;1.30;99.90;;;;;;5013235;28;20161;-90
2022/05/01 04:11:46;;;;;;;19.65;14.70;;;1.20;99.90;;;;;;5024669;28;20103;-91
2022/05/01 04:14:12;;;;;;;20.13;15.65;;;1.20;99.90;;;;;;5020870;28;20403;-91
2022/05/01 04:16:38;;;;;;;216.95;19.98;;;1.20;99.90;;;;;;5019516;28;20222;-91
2022/05/01 04:19:03;;;;;;;638.72;47.50;;;1.10;99.90;;;;;;5017667;28;20041;-90
2022/05/01 04:21:32;;;;;;;62.20;18.13;;;1.10;99.90;;;;;;5032136;28;20100;-90
2022/05/01 04:23:58;;;;;;;360.30;29.65;;;1.00;99.90;;;;;;5018265;28;20049;-90
2022/05/01 04:26:23;;;;;;;667.45;52.53;;;0.90;99.90;;;;;;5041069;28;20324;-91
2022/05/01 04:31:33;;;;;;;200.55;21.67;;;0.90;1.00;;;;;;5034651;28;20052;-90
2022/05/01 04:33:58;;;;;;;32.78;15.02;;;0.80;99.90;;;;;;5023124;28;20390;-90
2022/05/01 04:36:25;;;;;;;74.68;17.38;;;0.90;99.90;;;;;;5019488;28;20037;-91
2022/05/01 04:38:51;;;;;;;60.25;15.50;;;1.00;1.00;;;;;;5020564;28;20067;-91
2022/05/01 04:41:18;;;;;;;55.72;17.50;;;1.00;99.90;;;;;;5017620;28;20048;-90
2022/05/01 04:43:43;;;;;;;31.20;15.60;;;0.90;99.90;;;;;;5023688;28;20063;-91
2022/05/01 04:46:09;;;;;;;102.90;18.65;;;1.00;99.90;;;;;;5024034;28;20486;-90
2022/05/01 04:48:35;;;;;;;520.80;44.35;;;1.00;99.90;;;;;;5016358;28;20414;-90
2022/05/01 04:51:00;;;;;;;157.13;21.15;;;1.10;1.00;;;;;;5016963;28;20059;-90
2022/05/01 04:53:26;;;;;;;86.60;17.10;;;1.20;1.00;;;;;;5021385;28;20040;-89
2022/05/01 04:55:52;;;;;;;29.85;16.33;;;1.20;99.90;;;;;;5021762;28;20039;-90
2022/05/01 04:58:21;;;;;;;56.25;16.38;;;1.30;99.90;;;;;;5019419;28;20135;-91
2022/05/01 05:00:48;;;;;;;65.45;18.00;;;1.40;99.90;;;;;;5024080;28;20190;-91
2022/05/01 05:03:14;;;;;;;32.97;17.33;;;1.50;99.90;;;;;;5014340;28;20041;-91
2022/05/01 05:05:42;;;;;;;20.17;14.02;;;1.50;99.90;;;;;;5049932;28;20130;-91
2022/05/01 05:10:53;;;;;;;41.93;15.90;;;1.60;99.90;;;;;;5046925;28;20527;-91
2022/05/01 05:13:23;;;;;;;19.73;14.15;;;1.80;99.90;;;;;;5034962;28;20041;-91
2022/05/01 05:15:53;;;;;;;16.50;13.95;;;1.90;99.90;;;;;;5023540;28;20098;-91
2022/05/01 05:18:19;;;;;;;20.33;15.02;;;2.00;99.90;;;;;;5021244;28;20132;-91
2022/05/01 05:20:47;;;;;;;17.42;14.48;;;2.20;99.90;;;;;;5037574;28;20432;-90
2022/05/01 05:23:13;;;;;;;19.67;15.00;;;2.30;99.90;;;;;;5013334;28;20033;-91
2022/05/01 05:25:40;;;;;;;23.02;16.27;;;2.30;99.90;;;;;;5018013;28;20041;-90
2022/05/01 05:28:07;;;;;;;16.50;14.48;;;2.50;99.90;;;;;;5021957;28;20098;-90
2022/05/01 05:30:36;;;;;;;17.55;14.95;;;2.60;99.90;;;;;;5022872;28;20045;-92
2022/05/01 05:33:03;;;;;;;17.17;14.48;;;2.80;99.90;;;;;;5036050;28;20038;-90
2022/05/01 05:35:29;;;;;;;17.50;13.90;;;2.80;99.90;;;;;;5014455;28;20072;-91
2022/05/01 05:37:55;;;;;;;16.55;14.55;;;2.90;99.90;;;;;;5021683;28;20122;-91
2022/05/01 05:40:21;;;;;;;18.90;14.82;;;3.00;99.90;;;;;;5032405;28;20052;-90
2022/05/01 05:42:46;;;;;;;16.45;14.43;;;3.30;99.90;;;;;;5036228;28;20063;-90
2022/05/01 05:45:13;;;;;;;17.70;15.52;;;3.40;99.90;;;;;;5024689;28;20037;-91
2022/05/01 05:47:39;;;;;;;18.05;14.80;;;3.60;99.90;;;;;;5015172;28;20041;-91
2022/05/01 05:50:05;;;;;;;17.77;15.45;;;3.70;99.90;;;;;;5039868;28;20500;-91
2022/05/01 05:52:32;;;;;;;19.05;16.55;;;3.80;99.90;;;;;;5013575;28;20063;-91
2022/05/01 05:54:58;;;;;;;20.20;16.70;;;3.90;99.90;;;;;;5019811;28;20478;-90
2022/05/01 05:57:23;;;;;;;20.20;16.20;;;4.10;99.90;;;;;;5017546;28;20048;-91
2022/05/01 05:59:49;;;;;;;20.02;15.57;;;4.30;99.90;;;;;;5020475;28;20037;-90
2022/05/01 06:02:15;;;;;;;19.38;15.38;;;4.40;99.90;;;;;;5022438;28;20040;-90
2022/05/01 06:04:43;;;;;;;21.63;17.08;;;4.60;99.90;;;;;;5014774;28;20292;-90
2022/05/01 06:07:09;;;;;;;20.52;16.17;;;4.80;99.90;;;;;;5019843;28;20941;-90
2022/05/01 06:09:37;;;;;;;20.65;16.00;;;4.90;99.90;;;;;;5021801;28;20081;-91
2022/05/01 06:12:03;;;;;;;23.40;17.80;;;5.20;99.90;;;;;;5016311;28;20036;-92
2022/05/01 06:14:29;;;;;;;21.05;17.73;;;5.30;99.90;;;;;;5018967;28;20051;-92
2022/05/01 06:16:55;;;;;;;23.00;18.13;;;5.50;99.90;;;;;;5028103;28;20052;-91
2022/05/01 06:19:23;;;;;;;22.40;18.42;;;5.80;99.90;;;;;;5017409;28;20045;-90
2022/05/01 06:21:49;;;;;;;23.38;19.15;;;6.10;99.90;;;;;;5012402;28;20144;-91
2022/05/01 06:24:15;;;;;;;22.45;18.38;;;6.20;99.90;;;;;;5014760;28;20148;-91
2022/05/01 06:26:40;;;;;;;22.17;18.42;;;6.30;99.90;;;;;;5039435;28;20041;-91
2022/05/01 06:29:06;;;;;;;19.50;16.38;;;6.50;99.90;;;;;;5038832;28;20037;-91
2022/05/01 06:31:32;;;;;;;18.33;16.20;;;6.80;99.90;;;;;;5025421;28;20041;-92
2022/05/01 06:33:57;;;;;;;21.88;17.52;;;7.00;99.90;;;;;;5023155;28;20056;-92
2022/05/01 06:36:23;;;;;;;19.65;16.75;;;7.20;99.90;;;;;;5014084;28;20051;-92
2022/05/01 06:38:52;;;;;;;19.27;16.20;;;7.20;1.00;;;;;;5021629;28;20139;-92
2022/05/01 06:41:18;;;;;;;20.63;15.93;;;7.40;1.00;;;;;;5013922;28;20072;-92
2022/05/01 06:43:44;;;;;;;21.20;15.27;;;7.60;1.00;;;;;;5020467;28;20029;-93
2022/05/01 06:46:10;;;;;;;17.50;13.90;;;7.70;99.90;;;;;;5020881;28;20033;-92
2022/05/01 06:48:35;;;;;;;17.38;14.60;;;7.80;99.90;;;;;;5017713;28;20092;-91
2022/05/01 06:51:01;;;;;;;18.67;15.57;;;8.00;99.90;;;;;;5039044;28;20143;-92
2022/05/01 06:53:27;;;;;;;16.83;14.40;;;8.10;99.90;;;;;;5050202;28;20034;-90
2022/05/01 06:55:55;;;;;;;15.85;13.52;;;8.30;99.90;;;;;;5016064;28;20029;-90
2022/05/01 06:58:21;;;;;;;14.20;12.70;;;8.50;99.90;;;;;;5022456;28;20072;-93
2022/05/01 07:00:47;;;;;;;13.85;11.60;;;8.60;99.90;;;;;;5018846;28;20075;-91
2022/05/01 07:03:13;;;;;;;17.40;12.50;;;8.70;99.90;;;;;;5028183;28;20049;-91
2022/05/01 07:05:39;;;;;;;14.80;12.77;;;8.90;99.90;;;;;;5021061;28;20072;-92
2022/05/01 07:08:04;;;;;;;13.13;10.35;;;9.00;99.90;;;;;;5022525;28;20036;-92
2022/05/01 07:10:30;;;;;;;15.82;10.40;;;9.20;57.70;;;;;;5022309;28;20376;-92
2022/05/01 07:13:02;;;;;;;13.25;11.02;;;9.30;66.70;;;;;;5035336;28;20037;-92
2022/05/01 07:15:28;;;;;;;11.38;9.20;;;9.40;1.20;;;;;;5026964;28;20026;-91
2022/05/01 07:17:53;;;;;;;13.40;11.05;;;9.60;1.00;;;;;;5034699;28;20493;-92
2022/05/01 07:20:20;;;;;;;12.25;9.43;;;9.70;30.30;;;;;;5019460;28;20041;-92
2022/05/01 07:22:45;;;;;;;11.88;7.88;;;9.80;90.50;;;;;;5018784;28;20084;-92
2022/05/01 07:25:11;;;;;;;9.68;7.68;;;9.90;1.00;;;;;;5021112;28;20064;-93
2022/05/01 07:27:37;;;;;;;13.43;8.98;;;10.00;1.00;;;;;;5024577;28;20044;-92
2022/05/01 07:30:04;;;;;;;11.35;8.55;;;10.10;5.00;;;;;;5023973;28;20052;-91
2022/05/01 07:32:32;;;;;;;10.73;7.53;;;9.90;1.00;;;;;;5023335;28;20033;-92
2022/05/01 07:34:58;;;;;;;10.93;7.30;;;10.10;1.00;;;;;;5014673;28;20048;-94
2022/05/01 07:37:26;;;;;;;9.40;7.10;;;9.80;1.00;;;;;;5018129;28;20075;-91
2022/05/01 07:39:52;;;;;;;9.07;7.68;;;9.60;1.00;;;;;;5024355;28;20393;-92
2022/05/01 07:42:18;;;;;;;10.98;7.45;;;9.70;1.00;;;;;;5015810;28;20446;-92
2022/05/01 07:44:44;;;;;;;11.35;6.43;;;9.90;1.00;;;;;;5021914;28;20045;-93
2022/05/01 07:47:10;;;;;;;9.52;6.90;;;10.00;1.00;;;;;;5018048;28;20048;-91
2022/05/01 07:49:36;;;;;;;8.02;6.15;;;10.00;1.00;;;;;;5027833;28;20410;-93
2022/05/01 07:52:02;;;;;;;8.75;6.80;;;10.30;1.00;;;;;;5018198;28;20033;-93
2022/05/01 07:54:27;;;;;;;7.85;6.13;;;10.50;99.90;;;;;;5023488;28;20064;-91
2022/05/01 07:56:53;;;;;;;6.28;5.68;;;10.50;99.90;;;;;;5021591;28;20410;-93
2022/05/01 07:59:19;;;;;;;6.10;5.13;;;10.90;99.90;;;;;;5030833;28;20135;-94
2022/05/01 08:01:45;;;;;;;7.35;4.75;;;10.80;99.90;;;;;;5020202;28;20033;-92
2022/05/01 08:04:29;;;;;;;8.45;5.22;;;11.00;99.90;;;;;;5024195;28;20128;-92
2022/05/01 08:06:57;;;;;;;6.82;5.40;;;11.60;99.90;;;;;;5020652;28;20072;-93
2022/05/01 08:09:27;;;;;;;7.88;4.65;;;11.60;99.90;;;;;;5024479;28;20445;-92
2022/05/01 08:11:52;;;;;;;5.32;4.68;;;12.00;99.90;;;;;;5024967;28;20072;-92
2022/05/01 08:14:20;;;;;;;6.70;4.82;;;12.10;99.90;;;;;;5023390;28;20103;-92
2022/05/01 08:16:46;;;;;;;6.72;4.88;;;12.40;99.90;;;;;;5022968;28;20053;-93
2022/05/01 08:21:56;;;;;;;7.38;4.60;;;12.60;99.90;;;;;;5037197;28;20041;-93
2022/05/01 08:24:22;;;;;;;6.60;4.82;;;12.40;99.90;;;;;;5023069;28;20037;-93
2022/05/01 08:26:48;;;;;;;7.85;4.85;;;12.90;99.90;;;;;;5018702;28;21098;-92
2022/05/01 08:29:15;;;;;;;6.78;5.13;;;13.20;99.90;;;;;;5019970;28;20100;-93
2022/05/01 08:31:42;;;;;;;8.10;5.10;;;12.60;99.90;;;;;;5032060;28;20395;-92
2022/05/01 08:34:09;;;;;;;7.63;4.80;;;13.00;99.90;;;;;;5017407;28;20492;-93
2022/05/01 08:36:35;;;;;;;5.97;4.88;;;12.90;99.90;;;;;;5022560;28;20044;-92
2022/05/01 08:39:01;;;;;;;6.47;4.65;;;13.30;99.90;;;;;;5036722;28;20408;-91
2022/05/01 08:41:29;;;;;;;6.70;4.55;;;13.50;99.90;;;;;;5016206;28;20037;-91
2022/05/01 08:43:57;;;;;;;6.13;4.57;;;13.50;99.90;;;;;;5014973;28;20048;-92
2022/05/01 08:46:44;;;;;;;6.30;5.20;;;13.80;99.90;;;;;;5020406;28;20139;-92
2022/05/01 08:49:12;;;;;;;6.55;4.72;;;13.40;99.90;;;;;;5033135;28;20037;-91
2022/05/01 08:51:42;;;;;;;7.80;4.95;;;13.30;99.90;;;;;;5018357;28;20047;-92
2022/05/01 08:54:12;;;;;;;6.15;4.82;;;13.20;99.90;;;;;;5039997;28;20626;-92
2022/05/01 08:56:41;;;;;;;6.00;4.32;;;13.90;99.90;;;;;;5019085;28;20060;-91
2022/05/01 08:59:11;;;;;;;5.43;4.82;;;13.90;99.90;;;;;;5017555;28;20041;-91
2022/05/01 09:01:39;;;;;;;6.75;4.53;;;13.90;99.90;;;;;;5019172;28;20048;-92
2022/05/01 09:04:06;;;;;;;6.57;4.88;;;13.80;99.90;;;;;;5020064;28;20040;-92
2022/05/01 09:06:36;;;;;;;6.22;4.20;;;13.90;99.90;;;;;;5029258;28;20089;-91
2022/05/01 09:09:10;;;;;;;8.27;4.25;;;13.50;99.90;;;;;;5022345;28;20041;-91
2022/05/01 09:14:23;;;;;;;7.95;4.47;;;13.50;99.90;;;;;;5031996;28;20044;-91
2022/05/01 09:17:21;;;;;;;5.60;4.97;;;13.60;99.90;;;;;;5026512;28;20061;-91
2022/05/01 09:19:53;;;;;;;5.15;4.63;;;13.80;99.90;;;;;;5019796;28;20067;-92
2022/05/01 09:22:20;;;;;;;6.10;4.72;;;13.40;99.90;;;;;;5021562;28;20052;-91
2022/05/01 09:24:52;;;;;;;6.18;4.60;;;13.50;99.90;;;;;;5018322;28;20138;-91
2022/05/01 09:27:27;;;;;;;5.93;4.85;;;13.60;99.90;;;;;;5020903;28;20440;-92
2022/05/01 09:30:11;;;;;;;5.28;4.78;;;13.40;99.90;;;;;;5030987;28;20044;-91
2022/05/01 09:32:39;;;;;;;5.57;4.50;;;13.40;99.90;;;;;;5030863;28;20121;-91
2022/05/01 09:35:07;;;;;;;7.60;4.75;;;13.80;99.90;;;;;;5024768;28;20048;-91
2022/05/01 09:37:32;;;;;;;7.07;4.38;;;14.00;99.90;;;;;;5037236;28;20096;-91
2022/05/01 09:40:00;;;;;;;7.03;4.28;;;14.00;99.90;;;;;;5035097;28;20485;-91
2022/05/01 09:42:29;;;;;;;5.57;4.30;;;14.60;99.90;;;;;;5022174;28;20041;-90
2022/05/01 09:45:11;;;;;;;7.45;4.47;;;14.70;99.90;;;;;;5034551;28;20080;-91
2022/05/01 09:47:42;;;;;;;5.80;4.43;;;14.70;99.90;;;;;;5038826;28;20115;-91
2022/05/01 09:50:09;;;;;;;6.35;4.30;;;14.60;99.90;;;;;;5031932;28;20033;-91
2022/05/01 09:53:03;;;;;;;6.07;4.05;;;14.90;99.90;;;;;;5013519;28;20037;-90
2022/05/01 09:55:30;;;;;;;4.55;3.97;;;15.30;99.90;;;;;;5019537;28;20033;-91
2022/05/01 09:58:12;;;;;;;6.55;3.97;;;15.00;99.90;;;;;;5016761;28;20116;-90
2022/05/01 10:00:44;;;;;;;5.15;3.90;;;15.40;99.90;;;;;;5034587;28;20043;-89
2022/05/01 10:03:24;;;;;;;4.80;4.05;;;15.20;99.90;;;;;;5022786;28;20609;-91
2022/05/01 10:05:52;;;;;;;6.50;4.13;;;14.60;99.90;;;;;;5029482;28;20148;-90
2022/05/01 10:08:18;;;;;;;6.05;4.20;;;15.50;99.90;;;;;;5017182;28;20060;-90
2022/05/01 10:10:52;;;;;;;7.30;3.85;;;15.80;99.90;;;;;;5019134;28;20065;-91
2022/05/01 10:13:19;;;;;;;7.10;3.97;;;15.40;99.90;;;;;;5021193;28;20037;-89
2022/05/01 10:15:46;;;;;;;5.88;3.95;;;15.80;99.90;;;;;;5017783;28;20037;-90
2022/05/01 10:18:13;;;;;;;6.57;4.47;;;15.30;99.90;;;;;;5020241;28;20053;-90
2022/05/01 10:20:44;;;;;;;5.35;4.28;;;15.90;99.90;;;;;;5030117;28;20290;-89
2022/05/01 10:23:12;;;;;;;6.25;4.32;;;16.00;99.90;;;;;;5023094;28;20049;-90
2022/05/01 10:25:45;;;;;;;5.53;4.13;;;16.00;99.90;;;;;;5019730;28;20037;-91
2022/05/01 10:28:22;;;;;;;4.90;3.95;;;16.30;99.90;;;;;;5019765;28;20041;-89
2022/05/01 10:34:45;;;;;;;5.57;3.72;;;16.50;99.90;;;;;;5038568;28;20052;-91
2022/05/01 10:37:43;;;;;;;7.00;3.70;;;16.40;99.90;;;;;;5018854;28;20037;-89
2022/05/01 10:40:10;;;;;;;5.88;4.32;;;16.40;99.90;;;;;;5023543;28;20076;-91
2022/05/01 10:42:42;;;;;;;5.70;4.50;;;15.70;99.90;;;;;;5023429;28;20037;-91
2022/05/01 10:45:28;;;;;;;6.10;4.57;;;15.10;99.90;;;;;;5020381;28;20387;-90
2022/05/01 10:47:55;;;;;;;5.80;3.92;;;15.50;99.90;;;;;;5018239;28;20041;-90
2022/05/01 10:50:26;;;;;;;5.30;4.20;;;14.80;99.90;;;;;;5021619;28;20069;-91
2022/05/01 10:53:13;;;;;;;5.90;4.35;;;14.70;99.90;;;;;;5026489;28;20044;-90
2022/05/01 10:56:16;;;;;;;5.57;4.10;;;14.80;99.90;;;;;;5013379;28;20123;-89
2022/05/01 10:58:42;;;;;;;5.30;4.30;;;14.90;99.90;;;;;;5016931;28;20515;-91
2022/05/01 11:01:08;;;;;;;8.05;4.63;;;14.90;99.90;;;;;;5028905;28;20044;-90
2022/05/01 11:03:34;;;;;;;5.90;4.30;;;14.50;99.90;;;;;;5033837;28;20509;-89
2022/05/01 11:06:02;;;;;;;5.07;4.10;;;14.80;99.90;;;;;;5022463;28;20041;-89
2022/05/01 11:08:32;;;;;;;4.63;3.78;;;14.80;99.90;;;;;;5023254;28;20069;-89
2022/05/01 11:11:00;;;;;;;4.95;3.90;;;15.00;99.90;;;;;;5028153;28;20047;-89
2022/05/01 11:13:33;;;;;;;4.10;3.70;;;15.20;99.90;;;;;;5026368;28;20041;-90
2022/05/01 11:16:00;;;;;;;5.10;4.35;;;14.70;99.90;;;;;;5028492;28;20060;-90
2022/05/01 11:18:30;;;;;;;4.82;3.83;;;14.80;99.90;;;;;;5014598;28;20476;-90
2022/05/01 11:21:22;;;;;;;4.63;3.88;;;14.90;99.90;;;;;;5025339;28;20679;-89
2022/05/01 11:24:04;;;;;;;5.60;4.25;;;14.60;99.90;;;;;;5025785;28;20040;-89
2022/05/01 11:26:32;;;;;;;4.68;3.60;;;14.50;99.90;;;;;;5042622;28;20317;-90
2022/05/01 11:29:10;;;;;;;6.15;4.15;;;14.70;99.90;;;;;;5039187;28;20160;-90
2022/05/01 11:31:42;;;;;;;5.47;4.03;;;14.70;99.90;;;;;;5022403;28;20043;-90
2022/05/01 11:34:22;;;;;;;6.60;4.32;;;14.50;99.90;;;;;;5022042;28;20037;-89
2022/05/01 11:36:51;;;;;;;8.27;4.43;;;14.90;99.90;;;;;;5037183;28;20407;-90
2022/05/01 11:39:17;;;;;;;6.32;4.25;;;15.10;99.90;;;;;;5022169;28;20032;-90
2022/05/01 11:41:43;;;;;;;5.28;4.00;;;15.70;99.90;;;;;;5026576;28;20505;-91
2022/05/01 11:44:23;;;;;;;6.00;4.00;;;15.80;99.90;;;;;;5026708;28;20048;-90
2022/05/01 11:46:49;;;;;;;4.78;4.28;;;14.90;99.90;;;;;;5018757;28;20037;-91
2022/05/01 11:49:15;;;;;;;5.78;4.40;;;14.90;99.90;;;;;;5032094;28;20037;-90
2022/05/01 11:51:43;;;;;;;5.22;4.18;;;15.30;99.90;;;;;;5018034;28;20043;-91
2022/05/01 11:54:09;;;;;;;6.85;3.80;;;14.40;99.90;;;;;;5041953;28;20044;-91
2022/05/01 12:02:24;;;;;;;5.65;4.10;;;16.60;99.90;;;;;;5034677;28;20056;-91
2022/05/01 12:04:53;;;;;;;5.00;3.80;;;16.40;99.90;;;;;;5017841;28;20032;-90
2022/05/01 12:07:20;;;;;;;4.97;4.10;;;16.00;99.90;;;;;;5020305;28;20045;-92
2022/05/01 12:09:51;;;;;;;6.30;4.35;;;15.80;99.90;;;;;;5032860;28;20047;-91
2022/05/01 12:12:19;;;;;;;7.20;3.95;;;15.00;99.90;;;;;;5018890;28;20102;-91
2022/05/01 12:14:47;;;;;;;6.50;4.07;;;14.80;99.90;;;;;;5032136;28;20041;-91
2022/05/01 12:17:14;;;;;;;6.05;4.20;;;15.40;99.90;;;;;;5023517;28;20049;-92
2022/05/01 12:19:42;;;;;;;6.63;4.03;;;15.40;99.90;;;;;;5017013;28;20073;-91
2022/05/01 12:22:12;;;;;;;6.03;3.83;;;15.60;99.90;;;;;;5019382;28;20045;-90
2022/05/01 12:24:39;;;;;;;4.07;3.47;;;17.00;99.90;;;;;;5038108;28;20047;-89
2022/05/01 12:27:08;;;;;;;5.07;3.60;;;17.40;99.90;;;;;;5036560;28;20108;-91
2022/05/01 12:29:36;;;;;;;3.95;3.50;;;18.20;99.90;;;;;;5024023;28;20079;-91
2022/05/01 12:32:13;;;;;;;4.45;3.70;;;18.20;99.90;;;;;;5021254;28;20038;-90
2022/05/01 12:34:49;;;;;;;3.33;3.00;;;17.10;99.90;;;;;;5020363;28;20064;-90
2022/05/01 12:37:24;;;;;;;6.82;4.13;;;17.10;99.90;;;;;;5026247;28;20051;-91
2022/05/01 12:40:02;;;;;;;;;;;16.10;99.90;;;;;;5025615;28;20072;-92
2022/05/01 12:45:22;;;;;;;5.05;3.85;;;15.60;99.90;;;;;;5040142;28;20496;-90
2022/05/01 12:47:51;;;;;;;5.75;3.72;;;15.50;99.90;;;;;;5033566;28;20499;-92
2022/05/01 12:50:19;;;;;;;3.90;3.45;;;15.80;99.90;;;;;;5022953;28;20060;-91
2022/05/01 12:52:48;;;;;;;4.57;3.47;;;14.90;99.90;;;;;;5024149;28;20349;-91
2022/05/01 12:55:18;;;;;;;4.25;3.40;;;15.40;99.90;;;;;;5022558;28;20505;-91
2022/05/01 12:57:52;;;;;;;3.95;3.45;;;15.90;99.90;;;;;;5034429;28;20228;-89
2022/05/01 13:00:46;;;;;;;5.47;3.43;;;15.10;99.90;;;;;;5036509;28;20201;-90
2022/05/01 13:03:24;;;;;;;4.95;3.45;;;15.60;99.90;;;;;;5031941;28;20133;-91
2022/05/01 13:06:14;;;;;;;4.30;3.60;;;15.70;99.90;;;;;;5019778;28;20157;-91
2022/05/01 13:08:46;;;;;;;5.07;3.28;;;16.40;99.90;;;;;;5016391;28;20077;-91
2022/05/01 13:11:26;;;;;;;3.70;3.20;;;16.50;99.90;;;;;;5030477;28;20191;-92
2022/05/01 13:13:53;;;;;;;6.00;3.58;;;16.80;99.90;;;;;;5020826;28;20129;-92
2022/05/01 13:16:24;;;;;;;5.80;3.53;;;16.60;99.90;;;;;;5026147;28;20048;-91
2022/05/01 13:18:53;;;;;;;3.85;3.25;;;16.50;99.90;;;;;;5015961;28;20056;-91
2022/05/01 13:21:20;;;;;;;5.70;3.28;;;16.20;99.90;;;;;;5034391;28;20052;-91
2022/05/01 13:23:51;;;;;;;4.88;3.55;;;16.00;99.90;;;;;;5009942;28;20331;-91